Terminal Aerodrome Forecast
Issued by NWS Mobile, AL

Home | Current Version | Previous Version | Text Only | Print | Product List | Glossary On
Versions: 1 2 3 4 5 6 7 8 9 10 11 12 13 14 15 16 17 18 19 20 21 22 23 24 25 26 27 28 29 30 31 32
000
FTUS44 KMOB 081149
TAFMOB
TAF
KMOB 081149Z 0812/0912 36007KT P6SM BKN028
      TEMPO 0812/0813 OVC007
     FM081500 01014G22KT P6SM SCT050
     FM090000 36012KT P6SM BKN150=

USA.gov is the U.S. government's official web portal to all federal, state and local government web resources and services.